Time,TemperatureF,DewpointF,PressureIn,WindDirection,WindDirectionDegrees,WindSpeedMPH,WindSpeedGustMPH,Humidity,HourlyPrecipIn,Conditions,Clouds,dailyrainin,SoftwareType,DateUTC
2013-11-10 00:03:00,36.4,28.2,30.02,SW,220,0.0,16.0,72,0.00,OVC,,0.00,WeatherDisplay:10.37,2013-11-10 05:03:00,
2013-11-10 00:13:00,36.6,28.8,30.02,SW,218,0.0,2.0,73,0.00,OVC,,0.00,WeatherDisplay:10.37,2013-11-10 05:13:00,
2013-11-10 00:23:00,36.8,28.6,30.01,SW,224,0.0,2.0,72,0.00,OVC,,0.00,WeatherDisplay:10.37,2013-11-10 05:23:00,
2013-11-10 00:33:00,37.3,29.1,30.01,SW,233,1.0,3.0,72,0.00,OVC,,0.00,WeatherDisplay:10.37,2013-11-10 05:33:00,
2013-11-10 00:43:00,37.6,29.4,30.01,SW,236,0.0,4.0,72,0.00,OVC,,0.00,WeatherDisplay:10.37,2013-11-10 05:43:00,
2013-11-10 00:53:00,37.9,30.0,30.00,WSW,252,0.0,3.0,73,0.00,OVC,,0.00,WeatherDisplay:10.37,2013-11-10 05:53:00,
2013-11-10 01:03:00,37.9,30.7,29.99,SW,217,0.0,2.0,75,0.00,OVC,,0.00,WeatherDisplay:10.37,2013-11-10 06:03:00,
2013-11-10 01:13:00,37.9,30.7,29.99,SSW,203,0.0,4.0,75,0.00,OVC,,0.00,WeatherDisplay:10.37,2013-11-10 06:13:00,
2013-11-10 01:23:00,37.7,30.2,29.98,SSW,198,1.0,4.0,74,0.00,OVC,,0.00,WeatherDisplay:10.37,2013-11-10 06:23:00,
2013-11-10 01:33:00,37.6,30.4,29.96,SSW,205,0.0,3.0,75,0.00,OVC,,0.00,WeatherDisplay:10.37,2013-11-10 06:33:00,
2013-11-10 01:43:00,37.3,29.8,29.96,South,184,2.0,3.0,74,0.00,OVC,,0.00,WeatherDisplay:10.37,2013-11-10 06:43:00,
2013-11-10 01:53:00,36.7,29.6,29.95,SSE,149,0.0,4.0,75,0.00,OVC,,0.00,WeatherDisplay:10.37,2013-11-10 06:53:00,
2013-11-10 02:03:00,36.4,29.2,29.95,SSE,148,0.0,1.0,75,0.00,OVC,,0.00,WeatherDisplay:10.37,2013-11-10 07:03:00,
2013-11-10 02:13:00,36.4,29.9,29.95,SSE,147,0.0,4.0,77,0.00,OVC,,0.00,WeatherDisplay:10.37,2013-11-10 07:13:00,
2013-11-10 02:23:00,36.5,30.0,29.94,SSE,147,0.0,4.0,77,0.00,OVC,,0.00,WeatherDisplay:10.37,2013-11-10 07:23:00,
2013-11-10 02:33:00,36.7,30.5,29.93,SE,146,0.0,4.0,78,0.00,OVC,,0.00,WeatherDisplay:10.37,2013-11-10 07:33:00,
2013-11-10 02:43:00,36.8,31.2,29.93,SE,146,0.0,4.0,80,0.00,OVC,,0.00,WeatherDisplay:10.37,2013-11-10 07:43:00,
2013-11-10 02:53:00,37.6,32.3,29.93,SW,226,0.0,4.0,81,0.00,OVC,,0.00,WeatherDisplay:10.37,2013-11-10 07:53:00,
2013-11-10 03:03:00,38.0,33.3,29.92,West,280,1.0,7.0,83,0.00,-RA,,0.00,WeatherDisplay:10.37,2013-11-10 08:03:00,
2013-11-10 03:13:00,38.4,34.6,29.92,WSW,245,0.0,7.0,86,0.00,-RA,,0.00,WeatherDisplay:10.37,2013-11-10 08:13:00,
2013-11-10 03:23:00,38.7,35.5,29.92,SW,232,0.0,4.0,88,0.00,-RA,,0.00,WeatherDisplay:10.37,2013-11-10 08:23:00,
2013-11-10 03:33:00,38.9,35.6,29.91,WSW,239,0.0,4.0,88,0.00,-RA,,0.00,WeatherDisplay:10.37,2013-11-10 08:33:00,
2013-11-10 03:43:00,38.9,35.6,29.91,SW,233,0.0,9.0,88,0.00,-RA,,0.00,WeatherDisplay:10.37,2013-11-10 08:43:00,
2013-11-10 03:53:00,38.9,35.9,29.91,SW,218,0.0,4.0,89,0.01,-RA,,0.01,WeatherDisplay:10.37,2013-11-10 08:53:00,
2013-11-10 04:03:00,38.7,35.7,29.90,West,261,1.0,3.0,89,0.00,-RA,,0.01,WeatherDisplay:10.37,2013-11-10 09:03:00,
2013-11-10 04:13:00,38.9,36.2,29.90,West,281,0.0,3.0,90,0.00,-RA,,0.01,WeatherDisplay:10.37,2013-11-10 09:13:00,
2013-11-10 04:23:00,38.9,36.2,29.90,WNW,284,0.0,2.0,90,0.00,-RA,,0.01,WeatherDisplay:10.37,2013-11-10 09:23:00,
2013-11-10 04:33:00,38.9,36.5,29.90,WNW,286,0.0,1.0,91,0.01,-RA,,0.02,WeatherDisplay:10.37,2013-11-10 09:33:00,
2013-11-10 04:43:00,38.7,36.3,29.90,WNW,285,0.0,0.0,91,0.00,-RA,,0.02,WeatherDisplay:10.37,2013-11-10 09:43:00,
2013-11-10 04:53:00,38.6,36.2,29.90,WNW,284,0.0,1.0,91,0.00,-RA,,0.02,WeatherDisplay:10.37,2013-11-10 09:53:00,
2013-11-10 05:03:00,38.6,36.5,29.89,WNW,286,0.0,2.0,92,0.00,-RA,,0.02,WeatherDisplay:10.37,2013-11-10 10:03:00,
2013-11-10 05:23:00,38.4,36.5,29.88,NW,324,0.0,0.0,93,0.00,-RA,,0.02,WeatherDisplay:10.37,2013-11-10 10:23:00,
2013-11-10 05:33:00,38.3,36.5,29.87,NW,319,0.0,0.0,93,0.00,-RA,,0.02,WeatherDisplay:10.37,2013-11-10 10:33:00,
2013-11-10 05:43:00,38.3,36.7,29.87,NW,320,0.0,0.0,94,0.00,-RA,,0.02,WeatherDisplay:10.37,2013-11-10 10:43:00,
2013-11-10 05:53:00,38.3,36.7,29.87,NW,319,0.0,0.0,94,0.00,-RA,,0.02,WeatherDisplay:10.37,2013-11-10 10:53:00,
2013-11-10 06:03:00,38.3,36.7,29.87,NW,316,0.0,1.0,94,0.00,-RA,,0.02,WeatherDisplay:10.37,2013-11-10 11:03:00,
2013-11-10 06:13:00,38.6,37.3,29.87,NW,318,0.0,1.0,95,0.00,OVC,,0.02,WeatherDisplay:10.37,2013-11-10 11:13:00,
2013-11-10 06:23:00,38.6,37.3,29.86,SW,230,0.0,4.0,95,0.00,OVC,,0.02,WeatherDisplay:10.37,2013-11-10 11:23:00,
2013-11-10 06:33:00,39.0,37.7,29.86,WSW,250,0.0,0.0,95,0.00,OVC,,0.02,WeatherDisplay:10.37,2013-11-10 11:33:00,
2013-11-10 06:43:00,39.4,38.1,29.86,WSW,254,0.0,0.0,95,0.00,OVC,,0.02,WeatherDisplay:10.37,2013-11-10 11:43:00,
2013-11-10 06:53:00,39.6,38.3,29.87,WSW,250,0.0,0.0,95,0.00,OVC,,0.02,WeatherDisplay:10.37,2013-11-10 11:53:00,
2013-11-10 07:03:00,39.7,38.4,29.86,West,277,1.0,2.0,95,0.00,OVC,,0.02,WeatherDisplay:10.37,2013-11-10 12:03:00,
2013-11-10 07:13:00,40.0,38.4,29.86,WSW,241,0.0,2.0,94,0.00,OVC,,0.02,WeatherDisplay:10.37,2013-11-10 12:13:00,
2013-11-10 07:23:00,40.3,38.8,29.86,West,277,1.0,4.0,94,0.00,OVC,,0.02,WeatherDisplay:10.37,2013-11-10 12:23:00,
2013-11-10 07:33:00,40.4,38.5,29.85,WSW,247,0.0,3.0,93,0.00,OVC,,0.02,WeatherDisplay:10.37,2013-11-10 12:33:00,
2013-11-10 07:43:00,40.7,38.8,29.85,WSW,246,0.0,3.0,93,0.00,OVC,,0.02,WeatherDisplay:10.37,2013-11-10 12:43:00,
2013-11-10 07:53:00,41.3,39.2,29.85,West,263,1.0,4.0,92,0.00,OVC,,0.02,WeatherDisplay:10.37,2013-11-10 12:53:00,
2013-11-10 08:03:00,41.7,39.0,29.85,West,280,3.0,5.0,90,0.00,BKN,,0.02,WeatherDisplay:10.37,2013-11-10 13:03:00,
2013-11-10 08:13:00,42.0,39.0,29.85,WSW,247,1.0,5.0,89,0.00,BKN,,0.02,WeatherDisplay:10.37,2013-11-10 13:13:00,
2013-11-10 08:23:00,42.4,39.1,29.85,West,261,1.0,3.0,88,0.00,BKN,,0.02,WeatherDisplay:10.37,2013-11-10 13:23:00,
2013-11-10 08:33:00,42.6,38.7,29.85,WNW,282,1.0,4.0,86,0.00,BKN,,0.02,WeatherDisplay:10.37,2013-11-10 13:33:00,
2013-11-10 08:43:00,42.7,38.5,29.85,West,270,1.0,4.0,85,0.00,BKN,,0.02,WeatherDisplay:10.37,2013-11-10 13:43:00,
2013-11-10 08:53:00,43.0,38.8,29.84,West,260,0.0,3.0,85,0.00,BKN,,0.02,WeatherDisplay:10.37,2013-11-10 13:53:00,
2013-11-10 09:03:00,43.3,38.8,29.83,WSW,257,0.0,4.0,84,0.00,OVC,,0.02,WeatherDisplay:10.37,2013-11-10 14:03:00,
2013-11-10 09:13:00,43.7,39.2,29.83,WSW,238,0.0,7.0,84,0.00,OVC,,0.02,WeatherDisplay:10.37,2013-11-10 14:13:00,
2013-11-10 09:23:00,44.0,39.2,29.84,WSW,237,0.0,6.0,83,0.00,OVC,,0.02,WeatherDisplay:10.37,2013-11-10 14:23:00,
2013-11-10 09:33:00,44.2,38.4,29.83,WNW,288,0.0,5.0,80,0.00,OVC,,0.02,WeatherDisplay:10.37,2013-11-10 14:33:00,
2013-11-10 09:43:00,44.4,38.6,29.83,West,277,1.0,5.0,80,0.00,OVC,,0.02,WeatherDisplay:10.37,2013-11-10 14:43:00,
2013-11-10 09:53:00,45.3,37.8,29.83,West,278,2.0,7.0,75,0.00,OVC,,0.02,WeatherDisplay:10.37,2013-11-10 14:53:00,
2013-11-10 10:03:00,46.5,39.0,29.82,West,277,2.0,9.0,75,0.00,BKN,,0.02,WeatherDisplay:10.37,2013-11-10 15:03:00,
2013-11-10 10:13:00,46.9,38.3,29.82,West,278,2.0,6.0,72,0.00,BKN,,0.02,WeatherDisplay:10.37,2013-11-10 15:13:00,
2013-11-10 10:23:00,48.0,38.7,29.82,West,266,2.0,6.0,70,0.00,BKN,,0.02,WeatherDisplay:10.37,2013-11-10 15:23:00,
2013-11-10 10:33:00,48.4,36.4,29.81,WSW,242,2.0,9.0,63,0.00,BKN,,0.02,WeatherDisplay:10.37,2013-11-10 15:33:00,
2013-11-10 10:43:00,48.4,35.6,29.81,West,263,2.0,10.0,61,0.00,BKN,,0.02,WeatherDisplay:10.37,2013-11-10 15:43:00,
2013-11-10 10:53:00,48.9,35.6,29.80,West,275,3.0,10.0,60,0.00,BKN,,0.02,WeatherDisplay:10.37,2013-11-10 15:53:00,
2013-11-10 11:03:00,50.4,37.0,29.79,WSW,258,7.0,12.0,60,0.00,BKN,,0.02,WeatherDisplay:10.37,2013-11-10 16:03:00,
2013-11-10 11:13:00,49.9,35.3,29.79,WSW,253,2.0,10.0,57,0.00,SCT,,0.02,WeatherDisplay:10.37,2013-11-10 16:13:00,
2013-11-10 11:23:00,49.5,35.8,29.78,WSW,242,3.0,7.0,59,0.00,SCT,,0.02,WeatherDisplay:10.37,2013-11-10 16:23:00,
2013-11-10 11:33:00,50.2,35.5,29.76,West,279,2.0,12.0,57,0.00,SCT,,0.02,WeatherDisplay:10.37,2013-11-10 16:33:00,
2013-11-10 11:43:00,51.3,36.1,29.76,West,268,1.0,6.0,56,0.00,SCT,,0.02,WeatherDisplay:10.37,2013-11-10 16:43:00,
2013-11-10 11:53:00,50.8,35.7,29.76,West,274,0.0,6.0,56,0.00,SCT,,0.02,WeatherDisplay:10.37,2013-11-10 16:53:00,
2013-11-10 12:03:00,50.4,36.2,29.76,West,266,2.0,5.0,58,0.00,SCT,,0.02,WeatherDisplay:10.37,2013-11-10 17:03:00,
2013-11-10 12:13:00,50.1,35.4,29.76,West,271,5.0,12.0,57,0.00,OVC,,0.02,WeatherDisplay:10.37,2013-11-10 17:13:00,
2013-11-10 12:23:00,50.4,36.1,29.76,WSW,256,1.0,9.0,58,0.00,OVC,,0.02,WeatherDisplay:10.37,2013-11-10 17:23:00,
2013-11-10 12:33:00,51.1,35.9,29.76,West,268,6.0,10.0,56,0.00,OVC,,0.02,WeatherDisplay:10.37,2013-11-10 17:33:00,
2013-11-10 12:43:00,50.7,36.0,29.76,West,279,2.0,15.0,57,0.00,OVC,,0.02,WeatherDisplay:10.37,2013-11-10 17:43:00,
2013-11-10 12:53:00,50.4,36.2,29.76,West,266,2.0,15.0,58,0.00,OVC,,0.02,WeatherDisplay:10.37,2013-11-10 17:53:00,
2013-11-10 13:03:00,49.7,35.1,29.76,West,272,6.0,16.0,57,0.00,OVC,,0.02,WeatherDisplay:10.37,2013-11-10 18:03:00,
2013-11-10 13:13:00,49.2,34.6,29.76,WSW,251,7.0,16.0,57,0.00,OVC,,0.02,WeatherDisplay:10.37,2013-11-10 18:13:00,
2013-11-10 13:23:00,48.7,35.4,29.76,West,259,6.0,16.0,60,0.00,OVC,,0.02,WeatherDisplay:10.37,2013-11-10 18:23:00,
2013-11-10 13:33:00,46.9,35.8,29.77,West,259,8.0,22.0,65,0.00,OVC,,0.02,WeatherDisplay:10.37,2013-11-10 18:33:00,
2013-11-10 13:43:00,46.4,36.0,29.77,West,270,5.0,22.0,67,0.00,OVC,,0.02,WeatherDisplay:10.37,2013-11-10 18:43:00,
2013-11-10 13:53:00,46.4,36.4,29.77,West,261,2.0,22.0,68,0.00,OVC,,0.02,WeatherDisplay:10.37,2013-11-10 18:53:00,
2013-11-10 14:03:00,46.1,36.1,29.76,West,266,8.0,22.0,68,0.00,OVC,,0.02,WeatherDisplay:10.37,2013-11-10 19:03:00,
2013-11-10 14:13:00,45.9,35.9,29.76,West,268,5.0,22.0,68,0.00,-RA,,0.03,WeatherDisplay:10.37,2013-11-10 19:13:00,
2013-11-10 14:23:00,45.8,35.9,29.76,WSW,254,5.0,22.0,68,0.01,-RA,,0.03,WeatherDisplay:10.37,2013-11-10 19:23:00,
2013-11-10 14:33:00,45.6,35.3,29.76,WSW,251,7.0,22.0,67,0.00,-RA,,0.03,WeatherDisplay:10.37,2013-11-10 19:33:00,
2013-11-10 14:43:00,45.3,35.4,29.76,West,259,5.0,22.0,68,0.00,-RA,,0.03,WeatherDisplay:10.37,2013-11-10 19:43:00,
2013-11-10 14:53:00,45.2,34.9,29.77,West,275,3.0,22.0,67,0.00,-RA,,0.03,WeatherDisplay:10.37,2013-11-10 19:53:00,
2013-11-10 15:03:00,45.0,34.3,29.76,WSW,254,3.0,22.0,66,0.00,-RA,,0.03,WeatherDisplay:10.37,2013-11-10 20:03:00,
2013-11-10 15:13:00,44.9,35.0,29.76,West,274,2.0,22.0,68,0.00,-RA,,0.03,WeatherDisplay:10.37,2013-11-10 20:13:00,
2013-11-10 15:23:00,44.6,34.3,29.76,West,262,5.0,22.0,67,0.00,-RA,,0.03,WeatherDisplay:10.37,2013-11-10 20:23:00,
2013-11-10 15:33:00,44.4,34.5,29.77,West,267,5.0,22.0,68,0.00,-RA,,0.03,WeatherDisplay:10.37,2013-11-10 20:33:00,
2013-11-10 15:43:00,44.2,34.7,29.77,West,268,5.0,22.0,69,0.00,-RA,,0.03,WeatherDisplay:10.37,2013-11-10 20:43:00,
2013-11-10 15:53:00,44.0,34.5,29.77,West,266,6.0,22.0,69,0.00,-RA,,0.03,WeatherDisplay:10.37,2013-11-10 20:53:00,
2013-11-10 16:13:00,43.9,34.7,29.77,West,275,2.0,22.0,70,0.00,OVC,,0.03,WeatherDisplay:10.37,2013-11-10 21:13:00,
2013-11-10 16:23:00,43.7,34.2,29.77,West,260,3.0,22.0,69,0.00,OVC,,0.03,WeatherDisplay:10.37,2013-11-10 21:23:00,
2013-11-10 16:33:00,43.4,33.9,29.78,West,264,3.0,22.0,69,0.00,OVC,,0.03,WeatherDisplay:10.37,2013-11-10 21:33:00,
2013-11-10 16:43:00,43.1,33.6,29.78,WSW,256,5.0,22.0,69,0.00,OVC,,0.03,WeatherDisplay:10.37,2013-11-10 21:43:00,
2013-11-10 16:53:00,42.9,33.4,29.79,WSW,255,3.0,22.0,69,0.00,OVC,,0.03,WeatherDisplay:10.37,2013-11-10 21:53:00,
2013-11-10 17:03:00,42.6,33.5,29.79,West,270,2.0,22.0,70,0.00,OVC,,0.03,WeatherDisplay:10.37,2013-11-10 22:03:00,
2013-11-10 17:13:00,42.4,33.3,29.79,West,261,2.0,22.0,70,0.00,CLR,,0.03,WeatherDisplay:10.37,2013-11-10 22:13:00,
2013-11-10 17:23:00,42.4,33.3,29.80,West,273,2.0,22.0,70,0.00,CLR,,0.03,WeatherDisplay:10.37,2013-11-10 22:23:00,
2013-11-10 17:33:00,42.2,33.2,29.80,West,263,2.0,22.0,70,0.00,CLR,,0.03,WeatherDisplay:10.37,2013-11-10 22:33:00,
2013-11-10 17:43:00,42.1,33.0,29.80,West,261,2.0,22.0,70,0.00,CLR,,0.03,WeatherDisplay:10.37,2013-11-10 22:43:00,
2013-11-10 17:53:00,42.1,32.7,29.80,WSW,256,3.0,22.0,69,0.00,CLR,,0.03,WeatherDisplay:10.37,2013-11-10 22:53:00,
2013-11-10 18:03:00,41.9,32.8,29.81,WSW,258,2.0,22.0,70,0.00,CLR,,0.03,WeatherDisplay:10.37,2013-11-10 23:03:00,
2013-11-10 18:13:00,42.0,32.6,29.81,West,278,3.0,22.0,69,0.00,CLR,,0.03,WeatherDisplay:10.37,2013-11-10 23:13:00,
2013-11-10 18:23:00,42.1,32.7,29.81,West,264,2.0,22.0,69,0.00,CLR,,0.03,WeatherDisplay:10.37,2013-11-10 23:23:00,
2013-11-10 18:33:00,42.0,32.6,29.81,West,273,3.0,22.0,69,0.00,CLR,,0.03,WeatherDisplay:10.37,2013-11-10 23:33:00,
2013-11-10 18:43:00,42.0,32.6,29.81,West,259,5.0,22.0,69,0.00,CLR,,0.03,WeatherDisplay:10.37,2013-11-10 23:43:00,
2013-11-10 18:53:00,42.1,32.3,29.81,West,264,5.0,22.0,68,0.00,CLR,,0.03,WeatherDisplay:10.37,2013-11-10 23:53:00,
2013-11-10 19:03:00,42.1,32.3,29.81,West,264,7.0,22.0,68,0.00,CLR,,0.03,WeatherDisplay:10.37,2013-11-11 00:03:00,
2013-11-10 19:13:00,42.1,30.8,29.81,West,262,7.0,22.0,64,0.00,CLR,,0.03,WeatherDisplay:10.37,2013-11-11 00:13:00,
2013-11-10 19:23:00,42.1,31.9,29.80,WSW,257,6.0,22.0,67,0.00,CLR,,0.03,WeatherDisplay:10.37,2013-11-11 00:23:00,
2013-11-10 19:33:00,42.3,31.7,29.81,West,268,3.0,22.0,66,0.00,CLR,,0.03,WeatherDisplay:10.37,2013-11-11 00:33:00,
2013-11-10 19:43:00,42.1,31.6,29.81,West,275,7.0,22.0,66,0.00,CLR,,0.03,WeatherDisplay:10.37,2013-11-11 00:43:00,
2013-11-10 19:53:00,42.0,31.8,29.81,West,267,6.0,22.0,67,0.00,CLR,,0.03,WeatherDisplay:10.37,2013-11-11 00:53:00,
2013-11-10 20:03:00,42.0,31.8,29.82,West,261,5.0,22.0,67,0.00,CLR,,0.03,WeatherDisplay:10.37,2013-11-11 01:03:00,
2013-11-10 20:13:00,41.7,31.9,29.82,West,265,7.0,22.0,68,0.00,FEW,,0.03,WeatherDisplay:10.37,2013-11-11 01:13:00,
2013-11-10 20:23:00,41.9,32.1,29.82,West,265,5.0,22.0,68,0.00,FEW,,0.03,WeatherDisplay:10.37,2013-11-11 01:23:00,
2013-11-10 20:33:00,41.6,31.8,29.82,West,265,7.0,23.0,68,0.00,FEW,,0.03,WeatherDisplay:10.37,2013-11-11 01:33:00,
2013-11-10 20:43:00,41.6,31.8,29.82,West,273,8.0,23.0,68,0.00,FEW,,0.03,WeatherDisplay:10.37,2013-11-11 01:43:00,
2013-11-10 20:53:00,41.7,31.5,29.82,West,265,8.0,17.0,67,0.00,FEW,,0.03,WeatherDisplay:10.37,2013-11-11 01:53:00,
2013-11-10 21:03:00,41.6,31.4,29.83,WSW,253,3.0,16.0,67,0.00,CLR,,0.03,WeatherDisplay:10.37,2013-11-11 02:03:00,
2013-11-10 21:13:00,41.6,31.4,29.83,West,269,7.0,16.0,67,0.00,CLR,,0.03,WeatherDisplay:10.37,2013-11-11 02:13:00,
2013-11-10 21:23:00,41.4,31.3,29.83,West,259,3.0,14.0,67,0.00,CLR,,0.03,WeatherDisplay:10.37,2013-11-11 02:23:00,
2013-11-10 21:33:00,41.1,31.0,29.83,WSW,253,2.0,13.0,67,0.00,CLR,,0.03,WeatherDisplay:10.37,2013-11-11 02:33:00,
2013-11-10 21:43:00,41.1,30.9,29.83,West,271,7.0,12.0,67,0.00,CLR,,0.03,WeatherDisplay:10.37,2013-11-11 02:43:00,
2013-11-10 21:53:00,41.1,31.0,29.84,West,264,5.0,12.0,67,0.00,CLR,,0.03,WeatherDisplay:10.37,2013-11-11 02:53:00,
2013-11-10 22:03:00,41.3,30.8,29.85,West,273,3.0,16.0,66,0.00,CLR,,0.03,WeatherDisplay:10.37,2013-11-11 03:03:00,
2013-11-10 22:13:00,41.7,31.2,29.85,West,268,5.0,14.0,66,0.00,CLR,,0.03,WeatherDisplay:10.37,2013-11-11 03:13:00,
2013-11-10 22:23:00,41.6,31.1,29.85,West,269,5.0,12.0,66,0.00,CLR,,0.03,WeatherDisplay:10.37,2013-11-11 03:23:00,
2013-11-10 22:33:00,41.4,31.2,29.85,West,260,8.0,17.0,67,0.00,CLR,,0.03,WeatherDisplay:10.37,2013-11-11 03:33:00,
2013-11-10 22:43:00,41.6,31.1,29.85,West,265,15.0,32.0,66,0.00,CLR,,0.03,WeatherDisplay:10.37,2013-11-11 03:43:00,
2013-11-10 22:53:00,41.1,31.3,29.85,WSW,256,7.0,32.0,68,0.00,CLR,,0.03,WeatherDisplay:10.37,2013-11-11 03:53:00,
2013-11-10 23:03:00,40.4,31.0,29.86,WSW,257,14.0,32.0,69,0.00,CLR,,0.03,WeatherDisplay:10.37,2013-11-11 04:03:00,
2013-11-10 23:13:00,40.0,30.6,29.86,West,272,10.0,32.0,69,0.00,FEW,,0.03,WeatherDisplay:10.37,2013-11-11 04:13:00,
2013-11-10 23:23:00,39.9,29.8,29.86,West,269,6.0,32.0,67,0.00,FEW,,0.03,WeatherDisplay:10.37,2013-11-11 04:23:00,
2013-11-10 23:33:00,39.9,29.5,29.87,West,269,7.0,32.0,66,0.00,FEW,,0.03,WeatherDisplay:10.37,2013-11-11 04:33:00,
2013-11-10 23:43:00,40.0,29.6,29.87,WSW,253,6.0,32.0,66,0.00,FEW,,0.03,WeatherDisplay:10.37,2013-11-11 04:43:00,
2013-11-10 23:53:00,39.9,29.1,29.88,West,272,5.0,32.0,65,0.00,FEW,,0.03,WeatherDisplay:10.37,2013-11-11 04:53:00,